createdAt,value
2018-01-15T00:00:03.048Z,21.60
2018-01-15T00:02:30.505Z,24.03
2018-01-15T00:04:57.995Z,27.77
2018-01-15T00:07:25.481Z,22.43
2018-01-15T00:09:52.957Z,22.00
2018-01-15T00:12:21.309Z,23.97
2018-01-15T00:14:48.869Z,24.47
2018-01-15T00:17:16.318Z,25.53
2018-01-15T00:19:43.795Z,22.00
2018-01-15T00:22:14.125Z,22.67
2018-01-15T00:24:42.504Z,23.50
2018-01-15T00:27:10.745Z,21.40
2018-01-15T00:29:38.337Z,23.73
2018-01-15T00:32:06.597Z,24.47
2018-01-15T00:34:34.080Z,21.20
2018-01-15T00:37:02.457Z,20.47
2018-01-15T00:39:29.945Z,24.13
2018-01-15T00:41:57.428Z,21.90
2018-01-15T00:44:24.905Z,31.30
2018-01-15T00:46:52.381Z,21.17
2018-01-15T00:49:19.940Z,25.43
2018-01-15T00:51:47.404Z,27.27
2018-01-15T00:54:15.650Z,22.20
2018-01-15T00:56:43.117Z,23.73
2018-01-15T00:59:10.686Z,26.23
2018-01-15T01:01:38.928Z,24.60
2018-01-15T01:04:06.396Z,28.53
2018-01-15T01:06:33.870Z,22.43
2018-01-15T01:09:01.349Z,19.17
2018-01-15T01:11:29.588Z,21.77
2018-01-15T01:13:57.069Z,27.17
2018-01-15T01:16:24.541Z,20.50
2018-01-15T01:18:52.033Z,20.93
2018-01-15T01:21:19.505Z,20.17
2018-01-15T01:23:46.981Z,30.60
2018-01-15T01:26:14.445Z,20.27
2018-01-15T01:28:41.920Z,26.47
2018-01-15T01:31:10.230Z,20.53
2018-01-15T01:33:37.681Z,23.50
2018-01-15T01:36:05.177Z,22.40
2018-01-15T01:38:32.648Z,23.03
2018-01-15T01:41:00.118Z,25.80
2018-01-15T01:43:28.346Z,20.37
2018-01-15T01:45:55.828Z,19.60
2018-01-15T01:48:23.292Z,21.80
2018-01-15T01:50:50.761Z,21.63
2018-01-15T01:53:18.992Z,22.37
2018-01-15T01:55:46.464Z,22.90
2018-01-15T01:58:13.933Z,25.70
2018-01-15T02:00:41.401Z,23.97
2018-01-15T02:03:09.644Z,22.53
2018-01-15T02:05:37.180Z,20.53
2018-01-15T02:08:04.654Z,18.83
2018-01-15T02:10:32.133Z,23.63
2018-01-15T02:12:59.621Z,24.23
2018-01-15T02:15:27.857Z,22.20
2018-01-15T02:17:55.333Z,23.67
2018-01-15T02:20:23.564Z,24.10
2018-01-15T02:22:51.040Z,25.47
2018-01-15T02:25:18.513Z,21.93
2018-01-15T02:27:46.001Z,23.20
2018-01-15T02:30:14.235Z,23.37
2018-01-15T02:32:41.693Z,21.60
2018-01-15T02:35:09.173Z,22.03
2018-01-15T02:37:37.457Z,21.47
2018-01-15T02:40:05.700Z,23.17
2018-01-15T02:42:33.222Z,21.37
2018-01-15T02:45:00.830Z,24.00
2018-01-15T02:47:28.302Z,20.10
2018-01-15T02:49:56.546Z,18.23
2018-01-15T02:52:24.021Z,19.87
2018-01-15T02:54:51.481Z,22.10
2018-01-15T02:57:19.913Z,23.90
2018-01-15T02:59:47.386Z,23.53
2018-01-15T03:02:14.929Z,23.23
2018-01-15T03:04:42.412Z,22.07
2018-01-15T03:07:09.881Z,23.33
2018-01-15T03:09:38.145Z,23.90
2018-01-15T03:12:05.621Z,20.73
2018-01-15T03:14:33.084Z,24.73
2018-01-15T03:17:00.568Z,20.40
2018-01-15T03:19:28.072Z,21.80
2018-01-15T03:21:55.566Z,24.30
2018-01-15T03:24:23.893Z,24.77
2018-01-15T03:26:51.468Z,23.40
2018-01-15T03:29:18.916Z,25.30
2018-01-15T03:31:46.418Z,22.90
2018-01-15T03:34:14.654Z,23.97
2018-01-15T03:36:42.141Z,23.37
2018-01-15T03:39:09.600Z,25.20
2018-01-15T03:41:37.845Z,24.37
2018-01-15T03:44:05.316Z,22.33
2018-01-15T03:46:32.794Z,22.67
2018-01-15T03:49:01.049Z,25.60
2018-01-15T03:51:28.532Z,27.53
2018-01-15T03:53:56.770Z,22.03
2018-01-15T03:56:24.253Z,27.20
2018-01-15T03:58:51.721Z,21.40
2018-01-15T04:01:20.026Z,21.10
2018-01-15T04:03:48.261Z,26.33
2018-01-15T04:06:15.738Z,24.37
2018-01-15T04:08:43.990Z,23.30
2018-01-15T04:11:11.457Z,24.73
2018-01-15T04:13:39.712Z,23.67
2018-01-15T04:16:07.949Z,19.87
2018-01-15T04:18:35.464Z,25.00
2018-01-15T04:21:03.699Z,24.53
2018-01-15T04:23:31.186Z,29.30
2018-01-15T04:25:58.644Z,21.40
2018-01-15T04:28:26.892Z,21.57
2018-01-15T04:30:54.373Z,22.30
2018-01-15T04:33:21.844Z,23.10
2018-01-15T04:35:50.097Z,22.23
2018-01-15T04:38:17.626Z,24.40
2018-01-15T04:40:45.101Z,23.23
2018-01-15T04:43:12.564Z,22.73
2018-01-15T04:45:40.041Z,23.33
2018-01-15T04:48:08.406Z,22.73
2018-01-15T04:50:35.900Z,20.93
2018-01-15T04:53:04.442Z,24.10
2018-01-15T04:55:32.704Z,27.10
2018-01-15T04:58:00.173Z,24.40
2018-01-15T05:00:27.677Z,24.50
2018-01-15T05:02:55.160Z,22.23
2018-01-15T05:05:22.639Z,22.13
2018-01-15T05:07:50.104Z,22.87
2018-01-15T05:10:17.569Z,23.27
2018-01-15T05:12:45.042Z,22.40
2018-01-15T05:15:13.293Z,24.80
2018-01-15T05:17:40.792Z,20.63
2018-01-15T05:20:09.024Z,20.00
2018-01-15T05:22:36.518Z,21.33
2018-01-15T05:25:04.756Z,19.63
2018-01-15T05:27:32.726Z,23.73
2018-01-15T05:30:00.230Z,26.53
2018-01-15T05:32:27.762Z,22.17
2018-01-15T05:34:55.233Z,20.13
2018-01-15T05:37:22.701Z,26.23
2018-01-15T05:39:50.238Z,21.50
2018-01-15T05:42:18.460Z,21.50
2018-01-15T05:44:46.027Z,21.70
2018-01-15T05:47:13.868Z,22.63
2018-01-15T05:49:41.355Z,25.20
2018-01-15T05:52:08.821Z,23.07
2018-01-15T05:54:37.073Z,24.97
2018-01-15T05:57:04.577Z,23.13
2018-01-15T05:59:32.037Z,25.27
2018-01-15T06:02:00.276Z,22.97
2018-01-15T06:04:27.756Z,23.90
2018-01-15T06:06:55.227Z,25.67
2018-01-15T06:09:23.612Z,23.63
2018-01-15T06:11:51.869Z,27.90
2018-01-15T06:14:19.423Z,25.33
2018-01-15T06:16:46.902Z,22.90
2018-01-15T06:19:14.401Z,25.20
2018-01-15T06:21:41.870Z,23.17
2018-01-15T06:24:09.329Z,22.60
2018-01-15T06:26:36.859Z,23.10
2018-01-15T06:29:04.932Z,23.43
2018-01-15T06:31:32.396Z,27.73
2018-01-15T06:33:59.877Z,25.10
2018-01-15T06:36:27.468Z,30.43
2018-01-15T06:38:54.932Z,26.20
2018-01-15T06:41:24.047Z,25.20
2018-01-15T06:43:51.548Z,28.00
2018-01-15T06:46:19.029Z,47.93
2018-01-15T06:48:46.518Z,25.97
2018-01-15T06:51:14.738Z,24.10
2018-01-15T06:53:42.222Z,27.03
2018-01-15T06:56:09.700Z,30.20
2018-01-15T06:58:37.184Z,23.20
2018-01-15T07:01:05.624Z,21.17
2018-01-15T07:03:33.870Z,26.10
2018-01-15T07:06:01.333Z,23.93
2018-01-15T07:08:28.814Z,24.90
2018-01-15T07:10:57.049Z,23.07
2018-01-15T07:13:24.515Z,24.63
2018-01-15T07:15:51.992Z,22.83
2018-01-15T07:18:19.512Z,27.43
2018-01-15T07:20:46.984Z,25.30
2018-01-15T07:23:15.161Z,32.60
2018-01-15T07:25:42.697Z,23.90
2018-01-15T07:28:10.192Z,23.97
2018-01-15T07:30:38.066Z,26.30
2018-01-15T07:33:05.651Z,25.03
2018-01-15T07:35:33.954Z,25.60
2018-01-15T07:38:01.628Z,26.27
2018-01-15T07:40:29.146Z,27.33
2018-01-15T07:42:56.784Z,25.87
2018-01-15T07:45:24.293Z,24.50
2018-01-15T07:47:51.803Z,25.70
2018-01-15T07:50:19.330Z,25.00
2018-01-15T07:52:46.749Z,29.53
2018-01-15T07:55:14.217Z,29.60
2018-01-15T07:57:41.700Z,22.30
2018-01-15T08:00:09.173Z,20.10
2018-01-15T08:02:36.648Z,23.20
2018-01-15T08:05:04.872Z,22.87
2018-01-15T08:07:32.353Z,24.43
2018-01-15T08:09:59.820Z,27.97
2018-01-15T08:12:27.299Z,23.03
2018-01-15T08:14:55.620Z,25.23
2018-01-15T08:17:23.097Z,25.73
2018-01-15T08:19:50.562Z,24.13
2018-01-15T08:22:18.076Z,25.03
2018-01-15T08:24:45.704Z,26.57
2018-01-15T08:27:13.944Z,23.30
2018-01-15T08:29:41.460Z,28.50
2018-01-15T08:32:08.892Z,26.60
2018-01-15T08:34:37.150Z,23.07
2018-01-15T08:37:04.627Z,25.50
2018-01-15T08:39:32.926Z,24.70
2018-01-15T08:42:01.852Z,27.13
2018-01-15T08:44:29.332Z,26.00
2018-01-15T08:46:56.873Z,26.87
2018-01-15T08:49:24.338Z,26.53
2018-01-15T08:51:51.809Z,30.50
2018-01-15T08:54:19.273Z,25.93
2018-01-15T08:56:47.653Z,24.80
2018-01-15T08:59:15.892Z,26.23
2018-01-15T09:01:43.373Z,23.10
2018-01-15T09:04:10.888Z,25.00
2018-01-15T09:06:38.563Z,22.93
2018-01-15T09:09:06.082Z,26.07
2018-01-15T09:11:33.804Z,27.70
2018-01-15T09:14:01.308Z,26.73
2018-01-15T09:16:28.850Z,24.67
2018-01-15T09:18:57.087Z,25.80
2018-01-15T09:21:24.560Z,25.30
2018-01-15T09:23:52.034Z,27.60
2018-01-15T09:26:20.767Z,24.77
2018-01-15T09:28:48.223Z,24.00
2018-01-15T09:31:15.718Z,22.23
2018-01-15T09:33:43.205Z,26.87
2018-01-15T09:36:11.436Z,23.67
2018-01-15T09:38:38.916Z,26.93
2018-01-15T09:41:06.377Z,27.63
2018-01-15T09:43:34.625Z,23.60
2018-01-15T09:46:02.100Z,22.60
2018-01-15T09:48:29.636Z,22.10
2018-01-15T09:50:57.126Z,27.23
2018-01-15T09:53:24.668Z,30.47
2018-01-15T09:55:54.363Z,31.30
2018-01-15T09:58:23.568Z,19.70
2018-01-15T10:00:51.097Z,22.37
2018-01-15T10:03:18.590Z,21.60
2018-01-15T10:05:46.158Z,18.93
2018-01-15T10:08:13.695Z,20.63
2018-01-15T10:10:41.169Z,22.07
2018-01-15T10:13:08.633Z,28.60
2018-01-15T10:15:36.160Z,21.53
2018-01-15T10:18:03.617Z,27.00
2018-01-15T10:20:31.185Z,21.77
2018-01-15T10:22:58.688Z,20.77
2018-01-15T10:25:26.380Z,25.50
2018-01-15T10:27:53.894Z,26.70
2018-01-15T10:30:22.134Z,24.33
2018-01-15T10:32:49.625Z,20.97
2018-01-15T10:35:17.865Z,20.33
2018-01-15T10:37:45.342Z,22.17
2018-01-15T10:40:12.870Z,23.70
2018-01-15T10:42:40.437Z,27.73
2018-01-15T10:45:07.985Z,21.80
2018-01-15T10:47:35.455Z,21.83
2018-01-15T10:50:02.938Z,23.93
2018-01-15T10:52:31.292Z,20.07
2018-01-15T10:54:59.649Z,18.97
2018-01-15T10:57:27.122Z,16.63
2018-01-15T10:59:54.596Z,25.10
2018-01-15T11:02:22.091Z,20.90
2018-01-15T11:04:49.585Z,18.43
2018-01-15T11:07:17.064Z,23.27
2018-01-15T11:09:44.555Z,20.17
2018-01-15T11:12:12.805Z,17.13
2018-01-15T11:14:40.265Z,22.33
2018-01-15T11:17:07.754Z,22.97
2018-01-15T11:19:40.196Z,19.40
2018-01-15T11:22:07.669Z,21.60
2018-01-15T11:24:35.908Z,21.13
2018-01-15T11:27:03.385Z,18.43
2018-01-15T11:29:30.846Z,20.73
2018-01-15T11:31:58.552Z,21.20
2018-01-15T11:34:26.027Z,19.87
2018-01-15T11:36:53.509Z,16.73
2018-01-15T11:39:21.069Z,21.37
2018-01-15T11:41:48.535Z,15.17
2018-01-15T11:44:16.024Z,18.57
2018-01-15T11:46:43.513Z,16.27
2018-01-15T11:49:11.197Z,17.30
2018-01-15T11:51:38.749Z,23.20
2018-01-15T11:54:06.239Z,16.80
2018-01-15T11:56:35.310Z,18.00
2018-01-15T11:59:02.779Z,19.30
2018-01-15T12:01:30.248Z,24.53
2018-01-15T12:03:58.525Z,38.30
2018-01-15T12:06:26.770Z,19.67
2018-01-15T12:08:54.866Z,16.20
2018-01-15T12:11:22.328Z,14.83
2018-01-15T12:13:51.282Z,16.57
2018-01-15T12:16:18.741Z,16.70
2018-01-15T12:18:46.353Z,14.80
2018-01-15T12:21:14.647Z,15.43
2018-01-15T12:23:42.376Z,18.03
2018-01-15T12:26:10.624Z,18.07
2018-01-15T12:28:38.099Z,15.43
2018-01-15T12:31:05.764Z,16.27
2018-01-15T12:33:33.234Z,16.17
2018-01-15T12:36:01.539Z,15.47
2018-01-15T12:38:29.007Z,15.17
2018-01-15T12:40:56.604Z,17.10
2018-01-15T12:43:24.074Z,18.57
2018-01-15T12:45:52.318Z,13.23
2018-01-15T12:48:19.821Z,13.83
2018-01-15T12:50:48.061Z,13.33
2018-01-15T12:53:15.529Z,11.63
2018-01-15T12:55:43.157Z,13.50
2018-01-15T12:58:10.834Z,14.87
2018-01-15T13:00:38.342Z,11.37
2018-01-15T13:03:05.812Z,11.17
2018-01-15T13:05:53.241Z,11.20
2018-01-15T13:08:32.518Z,11.43
2018-01-15T13:10:59.972Z,9.73
2018-01-15T13:13:27.432Z,8.73
2018-01-15T13:15:54.893Z,9.67
2018-01-15T13:18:22.395Z,7.27
2018-01-15T13:20:49.855Z,7.23
2018-01-15T13:23:17.731Z,7.10
2018-01-15T13:25:45.229Z,5.57
2018-01-15T13:28:12.761Z,7.90
2018-01-15T13:30:40.275Z,5.97
2018-01-15T13:33:07.755Z,7.00
2018-01-15T13:35:35.232Z,6.20
2018-01-15T13:38:02.681Z,5.43
2018-01-15T13:40:30.159Z,5.13
2018-01-15T13:42:57.620Z,5.60
2018-01-15T13:45:25.100Z,4.97
2018-01-15T13:47:52.658Z,5.50
2018-01-15T13:50:20.127Z,4.30
2018-01-15T13:52:48.375Z,7.53
2018-01-15T13:55:15.848Z,5.00
2018-01-15T13:57:44.083Z,7.93
2018-01-15T14:00:11.553Z,4.83
2018-01-15T14:02:39.057Z,4.63
2018-01-15T14:05:06.559Z,4.73
2018-01-15T14:07:34.021Z,3.50
2018-01-15T14:10:02.212Z,3.53
2018-01-15T14:12:30.453Z,4.17
2018-01-15T14:14:58.158Z,6.00
2018-01-15T14:17:25.736Z,4.10
2018-01-15T14:19:55.376Z,13.00
2018-01-15T14:22:22.832Z,3.60
2018-01-15T14:24:50.468Z,6.30
2018-01-15T14:27:18.904Z,4.27
2018-01-15T14:29:46.381Z,4.27
2018-01-15T14:32:13.891Z,4.80
2018-01-15T14:34:41.414Z,4.33
2018-01-15T14:37:08.824Z,4.20
2018-01-15T14:39:36.293Z,5.83
2018-01-15T14:42:03.764Z,5.33
2018-01-15T14:44:31.242Z,3.90
2018-01-15T14:46:59.518Z,3.80
2018-01-15T14:49:27.769Z,4.40
2018-01-15T14:51:55.243Z,4.03
2018-01-15T14:54:23.497Z,4.33
2018-01-15T14:56:52.589Z,5.60
2018-01-15T14:59:20.069Z,8.20
2018-01-15T15:01:48.317Z,4.60
2018-01-15T15:04:15.773Z,5.40
2018-01-15T15:06:43.410Z,4.57
2018-01-15T15:09:10.878Z,6.13
2018-01-15T15:11:38.425Z,5.97
2018-01-15T15:14:05.957Z,7.40
2018-01-15T15:16:33.489Z,5.07
2018-01-15T15:19:00.897Z,5.10
2018-01-15T15:21:28.382Z,4.60
2018-01-15T15:23:55.860Z,6.93
2018-01-15T15:26:24.092Z,4.17
2018-01-15T15:28:51.571Z,8.70
2018-01-15T15:31:19.152Z,5.13
2018-01-15T15:33:47.481Z,3.93
2018-01-15T15:36:14.951Z,3.77
2018-01-15T15:38:42.410Z,4.50
2018-01-15T15:41:09.888Z,3.37
2018-01-15T15:43:37.346Z,3.03
2018-01-15T15:46:04.810Z,3.57
2018-01-15T15:48:32.390Z,3.83
2018-01-15T15:51:00.627Z,3.80
2018-01-15T15:53:28.922Z,2.50
2018-01-15T15:55:57.297Z,4.50
2018-01-15T15:58:24.878Z,2.17
2018-01-15T16:00:53.118Z,2.43
2018-01-15T16:03:21.357Z,5.00
2018-01-15T16:05:48.833Z,2.40
2018-01-15T16:08:16.299Z,5.03
2018-01-15T16:10:44.561Z,2.23
2018-01-15T16:13:12.026Z,2.40
2018-01-15T16:15:39.596Z,2.67
2018-01-15T16:18:07.870Z,2.40
2018-01-15T16:20:35.290Z,2.60
2018-01-15T16:23:02.876Z,4.80
2018-01-15T16:25:30.372Z,2.27
2018-01-15T16:27:58.789Z,2.00
2018-01-15T16:30:26.408Z,2.20
2018-01-15T16:32:53.916Z,2.97
2018-01-15T16:35:21.424Z,2.27
2018-01-15T16:37:48.865Z,2.63
2018-01-15T16:40:16.328Z,2.43
2018-01-15T16:42:43.797Z,2.53
2018-01-15T16:45:12.042Z,3.67
2018-01-15T16:47:40.385Z,9.00
2018-01-15T16:50:13.647Z,2.20
2018-01-15T16:52:41.872Z,2.43
2018-01-15T16:55:09.332Z,2.10
2018-01-15T16:57:36.833Z,3.10
2018-01-15T17:00:06.432Z,2.40
2018-01-15T17:02:33.866Z,3.13
2018-01-15T17:05:01.465Z,2.07
2018-01-15T17:07:29.686Z,3.43
2018-01-15T17:09:57.176Z,2.27
2018-01-15T17:12:25.423Z,1.50
2018-01-15T17:14:52.886Z,1.53
2018-01-15T17:17:20.364Z,6.90
2018-01-15T17:19:48.634Z,1.60
2018-01-15T17:22:16.092Z,1.77
2018-01-15T17:24:43.563Z,1.67
2018-01-15T17:27:11.792Z,3.77
2018-01-15T17:29:39.836Z,2.93
2018-01-15T17:32:11.231Z,2.23
2018-01-15T17:34:38.680Z,1.50
2018-01-15T17:37:06.180Z,1.83
2018-01-15T17:39:34.459Z,1.97
2018-01-15T17:42:02.714Z,3.07
2018-01-15T17:44:30.170Z,1.57
2018-01-15T17:46:57.637Z,4.00
2018-01-15T17:49:25.920Z,1.80
2018-01-15T17:51:54.227Z,1.60
2018-01-15T17:54:21.692Z,2.53
2018-01-15T17:56:49.185Z,1.30
2018-01-15T17:59:16.650Z,1.50
2018-01-15T18:01:44.121Z,1.50
2018-01-15T18:04:12.401Z,2.93
2018-01-15T18:06:40.632Z,1.87
2018-01-15T18:09:08.102Z,1.67
2018-01-15T18:11:35.572Z,1.50
2018-01-15T18:14:03.809Z,1.47
2018-01-15T18:16:31.272Z,0.90
2018-01-15T18:18:58.920Z,2.70
2018-01-15T18:21:26.485Z,1.20
2018-01-15T18:23:54.000Z,1.40
2018-01-15T18:26:22.253Z,1.77
2018-01-15T18:28:49.715Z,1.40
2018-01-15T18:31:17.181Z,2.40
2018-01-15T18:33:45.905Z,1.00
2018-01-15T18:36:13.374Z,1.10
2018-01-15T18:38:40.849Z,3.80
2018-01-15T18:41:08.333Z,1.33
2018-01-15T18:43:35.846Z,1.20
2018-01-15T18:46:04.076Z,1.10
2018-01-15T18:48:32.324Z,1.03
2018-01-15T18:51:00.557Z,2.07
2018-01-15T18:53:28.931Z,2.03
2018-01-15T18:55:56.398Z,2.30
2018-01-15T18:58:23.894Z,0.80
2018-01-15T19:00:51.378Z,1.03
2018-01-15T19:03:19.607Z,1.30
2018-01-15T19:05:47.061Z,1.17
2018-01-15T19:08:14.720Z,3.00
2018-01-15T19:10:42.179Z,1.10
2018-01-15T19:13:09.656Z,3.00
2018-01-15T19:15:37.115Z,1.87
2018-01-15T19:18:04.758Z,0.70
2018-01-15T19:20:32.232Z,1.63
2018-01-15T19:23:01.244Z,0.90
2018-01-15T19:25:29.614Z,0.80
2018-01-15T19:27:57.870Z,0.70
2018-01-15T19:30:25.349Z,1.37
2018-01-15T19:32:53.602Z,1.40
2018-01-15T19:35:26.854Z,1.70
2018-01-15T19:37:54.465Z,0.80
2018-01-15T19:40:21.932Z,2.00
2018-01-15T19:42:50.186Z,0.70
2018-01-15T19:45:23.245Z,2.60
2018-01-15T19:47:56.395Z,1.10
2018-01-15T19:50:30.439Z,1.33
2018-01-15T19:53:03.573Z,0.90
2018-01-15T19:55:36.654Z,0.90
2018-01-15T19:58:09.818Z,1.00
2018-01-15T20:00:43.039Z,2.90
2018-01-15T20:03:16.237Z,0.80
2018-01-15T20:05:49.515Z,0.90
2018-01-15T20:08:22.735Z,0.80
2018-01-15T20:10:52.860Z,0.80
2018-01-15T20:13:21.098Z,1.53
2018-01-15T20:15:48.572Z,1.10
2018-01-15T20:18:16.041Z,1.30
2018-01-15T20:20:44.289Z,1.23
2018-01-15T20:23:11.787Z,1.20
2018-01-15T20:25:40.253Z,0.80
2018-01-15T20:28:08.524Z,1.00
2018-01-15T20:30:36.758Z,1.20
2018-01-15T20:33:04.237Z,3.83
2018-01-15T20:35:31.826Z,0.80
2018-01-15T20:38:00.957Z,0.90
2018-01-15T20:40:28.425Z,0.70
2018-01-15T20:42:55.916Z,1.07
2018-01-15T20:45:23.384Z,1.07
2018-01-15T20:47:50.902Z,1.10
2018-01-15T20:50:18.370Z,1.00
2018-01-15T20:52:45.845Z,0.87
2018-01-15T20:55:13.307Z,0.90
2018-01-15T20:57:40.860Z,0.90
2018-01-15T21:00:08.344Z,0.87
2018-01-15T21:02:36.596Z,0.97
2018-01-15T21:05:04.089Z,2.10
2018-01-15T21:07:31.548Z,6.60
2018-01-15T21:09:59.001Z,1.00
2018-01-15T21:12:26.492Z,0.80
2018-01-15T21:14:53.982Z,0.73
2018-01-15T21:17:21.455Z,0.87
2018-01-15T21:19:48.921Z,0.77
2018-01-15T21:22:17.183Z,0.90
2018-01-15T21:24:45.433Z,0.80
2018-01-15T21:27:12.991Z,1.10
2018-01-15T21:29:40.697Z,1.33
2018-01-15T21:32:08.974Z,0.90
2018-01-15T21:34:37.228Z,1.03
2018-01-15T21:37:04.740Z,0.90
2018-01-15T21:39:32.217Z,0.97
2018-01-15T21:41:59.718Z,1.00
2018-01-15T21:44:28.081Z,1.10
2018-01-15T21:46:56.340Z,0.87
2018-01-15T21:49:25.364Z,0.80
2018-01-15T21:51:53.836Z,1.00
2018-01-15T21:54:22.078Z,2.10
2018-01-15T21:56:49.574Z,2.30
2018-01-15T21:59:17.819Z,2.27
2018-01-15T22:01:45.294Z,1.40
2018-01-15T22:04:12.770Z,1.20
2018-01-15T22:06:41.018Z,2.20
2018-01-15T22:09:08.479Z,1.20
2018-01-15T22:11:36.102Z,1.27
2018-01-15T22:14:03.566Z,1.20
2018-01-15T22:16:31.044Z,1.40
2018-01-15T22:18:58.527Z,5.40
2018-01-15T22:21:26.765Z,4.57
2018-01-15T22:23:55.043Z,1.30
2018-01-15T22:26:22.513Z,2.73
2018-01-15T22:28:49.989Z,2.33
2018-01-15T22:31:18.236Z,4.13
2018-01-15T22:33:45.722Z,2.93
2018-01-15T22:36:13.960Z,2.77
2018-01-15T22:38:41.428Z,2.57
2018-01-15T22:41:10.420Z,1.43
2018-01-15T22:43:37.916Z,1.70
2018-01-15T22:46:06.984Z,2.40
2018-01-15T22:48:34.444Z,4.60
2018-01-15T22:51:01.912Z,2.03
2018-01-15T22:53:30.353Z,1.60
2018-01-15T22:55:57.866Z,2.10
2018-01-15T22:58:25.346Z,1.30
2018-01-15T23:00:53.024Z,1.37
2018-01-15T23:03:20.494Z,2.33
2018-01-15T23:05:47.961Z,2.80
2018-01-15T23:08:15.416Z,1.10
2018-01-15T23:10:42.897Z,1.43
2018-01-15T23:13:11.129Z,1.37
2018-01-15T23:15:38.612Z,2.60
2018-01-15T23:18:06.073Z,1.70
2018-01-15T23:20:33.661Z,2.20
2018-01-15T23:23:01.192Z,2.20
2018-01-15T23:25:28.804Z,2.30
2018-01-15T23:27:56.277Z,2.60
2018-01-15T23:30:23.757Z,2.00
2018-01-15T23:32:51.224Z,5.60
2018-01-15T23:35:18.689Z,2.13
2018-01-15T23:37:47.010Z,1.47
2018-01-15T23:40:14.537Z,1.40
2018-01-15T23:42:42.913Z,1.97
2018-01-15T23:45:11.158Z,2.50
2018-01-15T23:47:38.620Z,1.40
2018-01-15T23:50:06.588Z,1.30
2018-01-15T23:52:34.059Z,1.47
2018-01-15T23:55:02.292Z,1.33
2018-01-15T23:57:29.748Z,3.73
2018-01-15T23:59:57.225Z,3.67
